Time;durP1;ratioP1;P1;durP2;ratioP2;P2;SDS_P1;SDS_P2;PMS_P1;PMS_P2;Temp;Humidity;BMP_temperature;BMP_pressure;BME280_temperature;BME280_humidity;BME280_pressure;Samples;Min_cycle;Max_cycle;Signal;HPM_P1;HPM_P2
2022/08/03 00:00:57;;;;;;;1.52;1.42;;;;;;;23.52;55.34;94696.28;5075439;28;20226;-82
2022/08/03 00:03:24;;;;;;;1.50;1.50;;;;;;;23.45;55.55;94685.94;5075333;28;20616;-82
2022/08/03 00:05:51;;;;;;;1.48;1.42;;;;;;;23.47;56.17;94699.56;5074949;28;20197;-87
2022/08/03 00:08:18;;;;;;;2.45;1.80;;;;;;;23.44;56.20;94693.97;5080868;28;20259;-85
2022/08/03 00:10:45;;;;;;;1.48;1.40;;;;;;;23.43;56.33;94702.81;5096012;28;20189;-84
2022/08/03 00:13:12;;;;;;;1.58;1.48;;;;;;;23.36;56.43;94686.41;5095437;28;20190;-89
2022/08/03 00:15:40;;;;;;;2.65;1.63;;;;;;;23.37;56.41;94691.44;5096086;28;20779;-86
2022/08/03 00:18:11;;;;;;;1.75;1.65;;;;;;;23.35;56.47;94695.28;5096892;28;20223;-85
2022/08/03 00:21:00;;;;;;;1.63;1.52;;;;;;;23.32;56.77;94696.50;5095169;28;20193;-81
2022/08/03 00:23:27;;;;;;;1.50;1.40;;;;;;;23.31;56.88;94691.50;5100533;28;20251;-82
2022/08/03 00:25:54;;;;;;;1.55;1.45;;;;;;;23.28;56.99;94693.53;5101378;28;20181;-82
2022/08/03 00:28:21;;;;;;;1.60;1.50;;;;;;;23.27;56.71;94693.72;5087694;28;20217;-83
2022/08/03 00:30:48;;;;;;;1.58;1.48;;;;;;;23.25;56.58;94698.38;5080559;28;20252;-82
2022/08/03 00:33:16;;;;;;;1.60;1.50;;;;;;;23.13;56.47;94681.84;5083940;28;20197;-80
2022/08/03 00:35:43;;;;;;;2.17;1.58;;;;;;;23.22;56.39;94701.41;5083485;28;20194;-80
2022/08/03 00:38:10;;;;;;;1.58;1.48;;;;;;;23.14;56.66;94683.44;5082092;28;20576;-85
2022/08/03 00:40:37;;;;;;;2.35;1.80;;;;;;;23.16;56.71;94684.81;5081516;28;20412;-85
2022/08/03 00:43:05;;;;;;;1.73;1.60;;;;;;;23.04;57.11;94673.50;5086828;28;20208;-85
2022/08/03 00:45:33;;;;;;;1.90;1.80;;;;;;;23.11;56.95;94687.28;5095646;28;20280;-89
2022/08/03 00:48:01;;;;;;;3.85;2.35;;;;;;;23.08;57.25;94687.72;5095032;28;20196;-82
2022/08/03 00:50:31;;;;;;;2.90;2.42;;;;;;;22.81;57.31;94647.22;5095542;28;20267;-81
2022/08/03 00:52:59;;;;;;;5.13;2.67;;;;;;;23.06;57.38;94684.53;5096551;28;20280;-86
2022/08/03 00:55:27;;;;;;;2.42;2.20;;;;;;;22.93;57.72;94674.22;5095142;28;20189;-85
2022/08/03 00:57:54;;;;;;;6.03;2.15;;;;;;;22.75;57.49;94646.25;5095003;28;20189;-81
2022/08/03 01:00:23;;;;;;;2.30;2.10;;;;;;;22.98;57.80;94682.19;5098789;28;20189;-81
2022/08/03 01:02:51;;;;;;;3.28;1.85;;;;;;;22.83;58.12;94663.44;5097159;28;20224;-81
2022/08/03 01:05:18;;;;;;;1.95;1.85;;;;;;;22.88;58.25;94674.00;5094465;28;20194;-84
2022/08/03 01:08:01;;;;;;;1.70;1.60;;;;;;;22.86;58.44;94670.84;5085396;28;20194;-82
2022/08/03 01:10:37;;;;;;;1.88;1.70;;;;;;;22.87;58.51;94677.63;5077725;28;20190;-82
2022/08/03 01:13:15;;;;;;;1.80;1.70;;;;;;;22.79;58.77;94674.28;5081130;28;20205;-81
2022/08/03 01:15:46;;;;;;;1.70;1.60;;;;;;;22.76;58.71;94669.50;5081107;28;20230;-82
2022/08/03 01:18:18;;;;;;;1.80;1.70;;;;;;;22.82;58.88;94669.66;5076790;28;20195;-84
2022/08/03 01:20:49;;;;;;;2.40;1.70;;;;;;;22.79;58.68;94670.88;5078300;28;20201;-86
2022/08/03 01:23:41;;;;;;;1.80;1.70;;;;;;;22.77;58.61;94665.09;5082741;28;20276;-84
2022/08/03 01:26:35;;;;;;;1.80;1.67;;;;;;;22.75;58.69;94672.31;5081985;28;20194;-86
2022/08/03 01:29:13;;;;;;;1.50;1.40;;;;;;;22.68;58.65;94656.72;5096423;28;20185;-82
2022/08/03 01:31:44;;;;;;;2.25;1.80;;;;;;;22.65;58.22;94653.75;5096756;28;20192;-83
2022/08/03 01:34:15;;;;;;;2.17;1.55;;;;;;;22.73;57.90;94669.94;5101962;28;20194;-86
2022/08/03 01:36:48;;;;;;;1.52;1.40;;;;;;;22.69;57.76;94670.56;5099160;28;20659;-80
2022/08/03 01:39:17;;;;;;;1.60;1.50;;;;;;;22.58;57.63;94663.44;5098083;28;20201;-86
2022/08/03 01:41:49;;;;;;;1.95;1.80;;;;;;;22.64;57.67;94676.41;5089059;28;20304;-87
2022/08/03 01:44:17;;;;;;;1.60;1.50;;;;;;;22.64;57.70;94678.22;5080260;28;20178;-85
2022/08/03 01:46:50;;;;;;;1.95;1.85;;;;;;;22.65;57.68;94675.41;5078544;28;20237;-85
2022/08/03 01:49:17;;;;;;;3.30;2.00;;;;;;;22.61;57.87;94676.03;5075431;28;20259;-87
2022/08/03 01:51:47;;;;;;;2.33;1.70;;;;;;;22.63;57.96;94676.66;5074221;28;20237;-89
2022/08/03 01:54:15;;;;;;;1.90;1.75;;;;;;;22.53;58.28;94666.66;5076759;28;20598;-84
2022/08/03 01:56:45;;;;;;;4.55;1.75;;;;;;;22.60;58.31;94677.06;5088017;28;20712;-80
2022/08/03 01:59:14;;;;;;;1.95;1.60;;;;;;;22.52;58.55;94676.31;5102245;28;20571;-84
2022/08/03 02:01:43;;;;;;;1.70;1.60;;;;;;;22.56;58.67;94681.91;5099451;28;20228;-80
2022/08/03 02:04:13;;;;;;;2.85;1.60;;;;;;;22.54;58.85;94684.72;5096304;28;20192;-86
2022/08/03 02:06:40;;;;;;;3.15;1.65;;;;;;;22.48;58.87;94674.34;5092745;28;20193;-89
2022/08/03 02:09:08;;;;;;;1.60;1.42;;;;;;;22.34;58.88;94655.38;5093534;28;20185;-82
2022/08/03 02:11:37;;;;;;;4.28;1.98;;;;;;;22.17;59.09;94626.44;5081394;28;20187;-86
2022/08/03 02:14:06;;;;;;;2.40;1.80;;;;;;;22.45;59.08;94686.00;5072792;28;20224;-87
2022/08/03 02:16:34;;;;;;;2.03;1.90;;;;;;;22.44;59.29;94686.97;5072550;28;20194;-84
2022/08/03 02:19:05;;;;;;;2.17;1.80;;;;;;;22.42;59.25;94677.78;5073501;28;20198;-84
2022/08/03 02:21:36;;;;;;;1.90;1.80;;;;;;;22.40;59.47;94678.00;5074088;28;20247;-86
2022/08/03 02:24:04;;;;;;;3.60;1.88;;;;;;;22.18;59.25;94655.91;5076025;28;20197;-90
2022/08/03 02:26:32;;;;;;;2.15;1.92;;;;;;;22.21;59.41;94658.09;5090482;28;20190;-83
2022/08/03 02:29:04;;;;;;;3.53;2.08;;;;;;;22.25;59.84;94661.88;5104024;28;20660;-83
2022/08/03 02:31:34;;;;;;;2.17;1.88;;;;;;;22.30;59.50;94680.28;5095593;28;20197;-87
2022/08/03 02:34:04;;;;;;;2.75;1.70;;;;;;;22.21;59.80;94665.91;5097680;28;20197;-82
2022/08/03 02:36:39;;;;;;;1.85;1.70;;;;;;;22.21;59.84;94671.91;5099055;28;20189;-84
2022/08/03 02:39:09;;;;;;;2.33;2.00;;;;;;;22.16;60.01;94669.13;5094400;28;20274;-88
2022/08/03 02:41:41;;;;;;;3.40;1.90;;;;;;;22.19;60.11;94673.13;5094496;28;20219;-93
2022/08/03 02:44:11;;;;;;;1.70;1.60;;;;;;;22.14;59.87;94665.13;5100063;28;20257;-91
2022/08/03 02:46:44;;;;;;;3.70;1.77;;;;;;;22.15;60.03;94667.56;5078100;28;20197;-89
2022/08/03 02:49:13;;;;;;;4.38;2.30;;;;;;;22.14;60.16;94670.34;5073387;28;20186;-92
2022/08/03 02:51:43;;;;;;;5.50;2.13;;;;;;;22.11;60.24;94673.34;5073906;28;20189;-91
2022/08/03 02:54:12;;;;;;;2.80;1.88;;;;;;;21.98;60.26;94648.97;5071827;28;20276;-86
2022/08/03 02:56:39;;;;;;;3.22;1.88;;;;;;;22.06;60.35;94666.16;5072691;28;20193;-85
2022/08/03 02:59:07;;;;;;;2.13;2.00;;;;;;;22.04;60.53;94668.19;5072167;28;20198;-84
2022/08/03 03:01:35;;;;;;;1.85;1.75;;;;;;;21.56;60.51;94607.94;5090751;28;20263;-90
2022/08/03 03:04:02;;;;;;;3.72;1.80;;;;;;;21.88;60.75;94656.44;5093724;28;20191;-87
2022/08/03 03:06:30;;;;;;;2.15;1.95;;;;;;;21.97;60.79;94676.00;5079913;28;20205;-90
2022/08/03 03:09:00;;;;;;;4.03;2.40;;;;;;;21.88;60.90;94669.44;5074195;28;20198;-92
2022/08/03 03:11:28;;;;;;;3.25;1.80;;;;;;;21.93;61.24;94681.84;5074924;28;20205;-90
2022/08/03 03:13:57;;;;;;;1.98;1.80;;;;;;;21.91;61.08;94689.88;5075053;28;20201;-80
2022/08/03 03:16:26;;;;;;;2.75;1.80;;;;;;;21.90;61.48;94693.50;5075140;28;20233;-92
2022/08/03 03:18:54;;;;;;;2.53;2.00;;;;;;;21.90;61.47;94700.50;5074390;28;20185;-88
2022/08/03 03:21:23;;;;;;;5.40;2.15;;;;;;;21.76;61.56;94682.34;5076525;28;20179;-91
2022/08/03 03:23:52;;;;;;;3.63;1.70;;;;;;;21.82;61.73;94698.13;5079106;28;20285;-89
2022/08/03 03:26:20;;;;;;;2.85;1.98;;;;;;;21.86;62.00;94712.34;5073780;28;20585;-88
2022/08/03 03:28:47;;;;;;;3.50;2.60;;;;;;;21.82;62.07;94709.34;5075279;28;20190;-89
2022/08/03 03:31:14;;;;;;;2.00;1.90;;;;;;;21.81;62.10;94706.97;5076038;28;20194;-88
2022/08/03 03:33:41;;;;;;;3.20;2.15;;;;;;;21.79;62.45;94712.34;5075617;28;20187;-82
2022/08/03 03:36:09;;;;;;;3.72;2.42;;;;;;;21.78;62.62;94715.97;5078270;28;20196;-89
2022/08/03 03:38:37;;;;;;;3.05;1.98;;;;;;;21.76;62.50;94715.34;5075677;28;20195;-89
2022/08/03 03:41:04;;;;;;;5.93;2.25;;;;;;;21.64;62.69;94697.00;5075982;28;20186;-88
2022/08/03 03:43:33;;;;;;;2.92;2.13;;;;;;;21.76;62.88;94716.19;5076311;28;20222;-88
2022/08/03 03:46:01;;;;;;;2.00;1.90;;;;;;;21.74;63.11;94720.00;5076768;28;20190;-89
2022/08/03 03:48:28;;;;;;;3.60;2.35;;;;;;;21.71;63.03;94723.78;5076848;28;20191;-94
2022/08/03 03:50:56;;;;;;;2.88;2.67;;;;;;;21.65;63.11;94710.81;5093230;28;20194;-87
2022/08/03 03:53:22;;;;;;;2.92;2.50;;;;;;;21.69;63.10;94719.81;5100071;28;20242;-87
2022/08/03 03:55:51;;;;;;;8.88;3.17;;;;;;;21.71;63.15;94720.38;5100353;28;20197;-86
2022/08/03 03:58:18;;;;;;;2.85;2.50;;;;;;;21.64;62.62;94709.22;5100782;28;20269;-86
2022/08/03 04:00:47;;;;;;;5.47;3.17;;;;;;;21.67;62.91;94714.78;5079895;28;20202;-84
2022/08/03 04:03:13;;;;;;;3.42;2.60;;;;;;;21.72;62.60;94720.19;5081016;28;20229;-86
2022/08/03 04:11:15;;;;;;;4.78;2.75;;;;;;;21.54;62.99;94710.44;5099529;28;20576;-85
2022/08/03 04:13:49;;;;;;;2.70;2.50;;;;;;;20.89;63.25;94607.31;5096501;28;20195;-87
2022/08/03 04:16:21;;;;;;;7.00;2.95;;;;;;;21.59;63.42;94719.44;5078243;28;20683;-92
2022/08/03 04:18:52;;;;;;;5.65;3.33;;;;;;;21.58;63.66;94716.03;5083384;28;20201;-89
2022/08/03 04:21:22;;;;;;;7.87;3.10;;;;;;;21.62;63.48;94724.22;5078539;28;20190;-90
2022/08/03 04:23:53;;;;;;;8.88;3.35;;;;;;;21.63;63.50;94721.44;5095049;28;20217;-86
2022/08/03 04:26:23;;;;;;;7.03;2.97;;;;;;;21.66;63.27;94725.41;5085068;28;20187;-90
2022/08/03 04:28:51;;;;;;;4.47;2.87;;;;;;;21.54;63.52;94707.84;5082428;28;20196;-91
2022/08/03 04:31:22;;;;;;;7.47;3.15;;;;;;;21.64;63.32;94717.03;5096036;28;20186;-92
2022/08/03 04:33:52;;;;;;;4.68;3.05;;;;;;;21.57;63.41;94700.63;5096384;28;20196;-83
2022/08/03 04:36:22;;;;;;;5.22;2.90;;;;;;;21.54;63.50;94694.84;5096531;28;20197;-91
2022/08/03 04:38:56;;;;;;;9.07;2.70;;;;;;;21.68;63.88;94718.22;5096218;28;20675;-91
2022/08/03 04:41:26;;;;;;;6.07;2.90;;;;;;;21.53;64.12;94708.84;5096275;28;20262;-93
2022/08/03 04:43:56;;;;;;;4.45;2.80;;;;;;;21.62;63.69;94725.03;5096165;28;20667;-91
2022/08/03 04:46:27;;;;;;;4.15;2.90;;;;;;;21.61;63.46;94720.81;5096428;28;20194;-92
2022/08/03 04:48:54;;;;;;;2.90;2.67;;;;;;;21.55;63.37;94708.66;5095855;28;20269;-86
2022/08/03 04:51:21;;;;;;;5.13;3.03;;;;;;;21.75;63.99;94734.59;5096184;28;20189;-87
2022/08/03 04:53:48;;;;;;;3.00;2.70;;;;;;;21.39;63.78;94672.66;5095337;28;20695;-82
2022/08/03 04:56:15;;;;;;;3.25;2.88;;;;;;;21.83;63.94;94742.19;5084752;28;20190;-86
2022/08/03 04:58:42;;;;;;;4.05;3.25;;;;;;;21.85;63.63;94732.38;5091211;28;20194;-89
2022/08/03 05:01:09;;;;;;;4.75;3.42;;;;;;;21.96;63.77;94736.13;5084738;28;20213;-88
2022/08/03 05:03:37;;;;;;;7.72;3.15;;;;;;;21.70;63.87;94687.56;5093669;28;20220;-91
2022/08/03 05:06:05;;;;;;;4.95;3.58;;;;;;;22.08;63.24;94749.31;5081517;28;20182;-84
2022/08/03 05:08:31;;;;;;;4.47;2.80;;;;;;;21.95;63.29;94721.50;5074218;28;20202;-82
2022/08/03 05:10:58;;;;;;;6.65;3.05;;;;;;;22.31;63.19;94756.63;5074225;28;20297;-83
2022/08/03 05:13:25;;;;;;;4.30;2.47;;;;;;;22.42;63.39;94748.97;5075581;28;20190;-83
2022/08/03 05:15:52;;;;;;;10.07;3.25;;;;;;;22.47;63.58;94730.88;5073933;28;20229;-83
2022/08/03 05:18:20;;;;;;;9.63;3.20;;;;;;;22.59;62.27;94754.47;5086849;28;20194;-85
2022/08/03 05:20:48;;;;;;;16.80;3.33;;;;;;;22.66;62.10;94757.81;5086560;28;20228;-83
2022/08/03 05:23:15;;;;;;;5.63;3.05;;;;;;;22.77;61.93;94764.16;5083967;28;20233;-82
2022/08/03 05:25:42;;;;;;;6.47;2.97;;;;;;;22.92;61.40;94769.91;5079445;28;20190;-83
2022/08/03 05:28:09;;;;;;;6.43;3.00;;;;;;;23.12;61.14;94772.34;5079412;28;20222;-83
2022/08/03 05:30:37;;;;;;;4.72;2.92;;;;;;;23.07;60.65;94740.09;5075468;28;20186;-82
2022/08/03 05:33:04;;;;;;;7.95;3.25;;;;;;;23.44;60.49;94767.06;5083412;28;20673;-83
2022/08/03 05:35:31;;;;;;;2.88;2.63;;;;;;;23.59;60.26;94767.53;5071749;28;20194;-87
2022/08/03 05:37:59;;;;;;;4.57;3.15;;;;;;;23.81;58.78;94770.53;5079299;28;20186;-84
2022/08/03 05:40:26;;;;;;;7.78;3.65;;;;;;;23.98;58.55;94774.16;5083901;28;20189;-89
2022/08/03 05:42:55;;;;;;;3.80;3.50;;;;;;;24.13;57.82;94780.81;5091950;28;20217;-80
2022/08/03 05:45:22;;;;;;;9.80;4.35;;;;;;;23.83;57.18;94781.53;5082581;28;20224;-82
2022/08/03 05:47:49;;;;;;;8.48;3.28;;;;;;;23.92;57.85;94777.66;5080283;28;20270;-86
2022/08/03 05:50:17;;;;;;;8.05;3.40;;;;;;;24.03;58.06;94773.50;5073948;28;20190;-81
2022/08/03 05:52:44;;;;;;;5.80;3.85;;;;;;;24.16;57.94;94781.19;5088489;28;20192;-84
2022/08/03 05:55:13;;;;;;;7.15;3.70;;;;;;;24.00;57.49;94734.75;5075057;28;20194;-83
2022/08/03 05:57:40;;;;;;;7.93;3.67;;;;;;;24.31;57.34;94780.81;5089047;28;20255;-84
2022/08/03 06:00:10;;;;;;;9.02;4.15;;;;;;;24.30;56.87;94758.28;5077387;28;20186;-84
2022/08/03 06:02:38;;;;;;;4.32;3.28;;;;;;;24.61;56.41;94777.41;5084452;28;20356;-83
2022/08/03 06:05:05;;;;;;;4.82;3.35;;;;;;;24.75;56.32;94777.00;5080620;28;20196;-81
2022/08/03 06:07:33;;;;;;;7.97;3.92;;;;;;;24.67;55.88;94745.16;5078543;28;20208;-81
2022/08/03 06:10:01;;;;;;;7.15;4.07;;;;;;;25.04;55.95;94785.00;5079009;28;20200;-80
2022/08/03 06:12:29;;;;;;;4.95;3.80;;;;;;;24.99;56.02;94754.28;5075573;28;20252;-84
2022/08/03 06:14:56;;;;;;;4.47;4.07;;;;;;;25.34;55.18;94789.41;5076165;28;20225;-89
2022/08/03 06:17:23;;;;;;;5.90;3.90;;;;;;;25.48;55.11;94775.88;5090765;28;20186;-87
2022/08/03 06:19:52;;;;;;;5.57;3.25;;;;;;;25.72;54.87;94784.50;5085510;28;20214;-84
2022/08/03 06:22:19;;;;;;;8.48;3.45;;;;;;;25.91;54.45;94785.22;5084242;28;20189;-83
2022/08/03 06:24:46;;;;;;;7.72;4.22;;;;;;;26.06;54.00;94789.94;5090361;28;20221;-87
2022/08/03 06:27:12;;;;;;;7.00;3.78;;;;;;;26.25;52.67;94791.41;5087956;28;20212;-83
2022/08/03 06:29:41;;;;;;;8.45;3.80;;;;;;;26.31;52.27;94752.94;5100402;28;20181;-81
2022/08/03 06:32:08;;;;;;;6.68;3.60;;;;;;;26.68;52.13;94787.47;5094363;28;20186;-87
2022/08/03 06:34:34;;;;;;;5.57;3.92;;;;;;;26.73;51.66;94777.09;5072225;28;20182;-79
2022/08/03 06:37:01;;;;;;;7.50;3.95;;;;;;;26.67;49.84;94766.72;5070686;28;20190;-83
2022/08/03 06:39:28;;;;;;;5.07;3.53;;;;;;;26.82;49.90;94790.63;5070123;28;20186;-83
2022/08/03 06:41:55;;;;;;;6.60;3.10;;;;;;;26.93;50.37;94788.94;5077838;28;20203;-81
2022/08/03 06:44:22;;;;;;;5.45;3.40;;;;;;;26.94;49.83;94787.91;5075501;28;20210;-84
2022/08/03 06:46:51;;;;;;;3.08;2.78;;;;;;;26.80;49.54;94763.00;5083613;28;20225;-85
2022/08/03 06:49:18;;;;;;;3.00;2.80;;;;;;;26.92;49.18;94777.66;5086002;28;20624;-82
2022/08/03 06:51:46;;;;;;;5.05;2.42;;;;;;;26.92;48.66;94764.53;5087358;28;20211;-83
2022/08/03 06:54:12;;;;;;;2.95;2.70;;;;;;;26.88;47.71;94775.75;5084487;28;20591;-85
2022/08/03 06:56:39;;;;;;;8.00;3.20;;;;;;;26.86;47.99;94783.06;5072877;28;20194;-88
2022/08/03 06:59:06;;;;;;;2.80;2.60;;;;;;;26.74;47.95;94783.91;5077939;28;20204;-82
2022/08/03 07:01:34;;;;;;;4.05;2.45;;;;;;;26.42;47.93;94749.47;5087369;28;20203;-85
2022/08/03 07:04:04;;;;;;;3.15;2.80;;;;;;;26.56;48.31;94783.34;5092363;28;20206;-84
2022/08/03 07:06:39;;;;;;;7.05;2.70;;;;;;;26.57;49.01;94771.81;5081064;28;20225;-87
2022/08/03 07:09:07;;;;;;;5.45;2.50;;;;;;;26.58;48.96;94761.06;5083784;28;20261;-88
2022/08/03 07:11:35;;;;;;;2.60;2.40;;;;;;;26.81;49.25;94770.63;5084570;28;20202;-90
2022/08/03 07:14:04;;;;;;;4.63;2.70;;;;;;;27.01;49.67;94772.81;5064485;28;20230;-88
2022/08/03 07:16:31;;;;;;;2.90;2.70;;;;;;;27.06;48.74;94775.50;5082900;28;20645;-90
2022/08/03 07:18:58;;;;;;;5.35;2.92;;;;;;;26.87;48.52;94725.09;5080850;28;20588;-90
2022/08/03 07:21:26;;;;;;;5.47;2.60;;;;;;;26.86;47.96;94713.00;5078357;28;20285;-91
2022/08/03 07:23:53;;;;;;;7.90;2.90;;;;;;;27.18;47.76;94750.00;5079256;28;20218;-88
2022/08/03 07:26:21;;;;;;;5.78;2.95;;;;;;;27.43;48.16;94782.94;5078546;28;20186;-89
2022/08/03 07:28:48;;;;;;;3.97;2.90;;;;;;;27.40;46.96;94792.09;5078121;28;20202;-90
2022/08/03 07:31:17;;;;;;;4.15;2.70;;;;;;;27.08;47.42;94717.53;5078445;28;20198;-89
2022/08/03 07:33:44;;;;;;;3.97;3.13;;;;;;;27.47;47.71;94770.94;5077665;28;20273;-89
2022/08/03 07:36:11;;;;;;;8.18;2.88;;;;;;;27.64;47.53;94784.03;5077023;28;20418;-87
2022/08/03 07:38:40;;;;;;;7.35;2.40;;;;;;;27.72;47.15;94788.84;5076748;28;20226;-88
2022/08/03 07:41:07;;;;;;;3.53;2.72;;;;;;;27.78;46.31;94787.16;5078335;28;20190;-90
2022/08/03 07:43:34;;;;;;;48.42;38.50;;;;;;;27.94;45.89;94789.72;5077356;28;20668;-90
2022/08/03 07:46:01;;;;;;;9.93;8.93;;;;;;;27.86;46.00;94750.72;5077555;28;20195;-92
2022/08/03 07:48:28;;;;;;;10.40;2.90;;;;;;;27.77;45.85;94715.38;5077860;28;20190;-92
2022/08/03 07:50:55;;;;;;;8.80;3.15;;;;;;;28.19;45.46;94756.88;5079912;28;20309;-90
2022/08/03 07:53:22;;;;;;;2.95;2.63;;;;;;;28.49;45.59;94788.81;5078576;28;20206;-90
2022/08/03 07:55:52;;;;;;;6.28;3.38;;;;;;;28.56;45.66;94793.88;5077220;28;20199;-88
2022/08/03 07:58:18;;;;;;;3.05;2.40;;;;;;;28.53;45.02;94793.59;5077322;28;20236;-86
2022/08/03 08:00:45;;;;;;;3.33;2.47;;;;;;;28.18;45.36;94719.25;5076699;28;20611;-89
2022/08/03 08:03:12;;;;;;;2.47;2.28;;;;;;;28.80;44.33;94793.56;5076192;28;20253;-90
2022/08/03 08:05:40;;;;;;;3.80;2.60;;;;;;;28.85;43.98;94796.28;5076779;28;20233;-92
2022/08/03 08:08:07;;;;;;;3.85;2.53;;;;;;;28.84;43.73;94806.00;5058777;28;20268;-92
2022/08/03 08:10:35;;;;;;;2.22;2.13;;;;;;;28.70;43.55;94784.53;5078232;28;20190;-91
2022/08/03 08:13:04;;;;;;;2.63;2.42;;;;;;;28.92;44.09;94794.22;5077228;28;20194;-87
2022/08/03 08:15:32;;;;;;;3.55;2.20;;;;;;;28.99;43.62;94806.19;5078732;28;20230;-87
2022/08/03 08:18:01;;;;;;;5.18;2.58;;;;;;;29.05;43.21;94790.41;5082275;28;20187;-89
2022/08/03 08:20:29;;;;;;;4.65;2.60;;;;;;;29.10;43.55;94786.00;5082400;28;20190;-90
2022/08/03 08:22:58;;;;;;;5.47;2.90;;;;;;;28.97;43.02;94755.63;5076711;28;20202;-88
2022/08/03 08:25:25;;;;;;;5.05;2.42;;;;;;;29.39;42.52;94799.66;5060883;28;20271;-90
2022/08/03 08:27:53;;;;;;;4.43;2.13;;;;;;;29.18;41.60;94738.09;5076467;28;20201;-90
2022/08/03 08:30:23;;;;;;;6.72;2.40;;;;;;;29.71;41.88;94794.38;5076734;28;20198;-90
2022/08/03 08:32:51;;;;;;;4.88;2.47;;;;;;;29.81;41.61;94795.47;5076042;28;20206;-89
2022/08/03 08:35:19;;;;;;;3.88;1.98;;;;;;;29.83;41.49;94785.44;5076062;28;20205;-87
2022/08/03 08:37:46;;;;;;;6.82;1.92;;;;;;;29.79;40.62;94758.00;5075767;28;20201;-88
2022/08/03 08:40:14;;;;;;;2.03;1.88;;;;;;;29.98;40.85;94788.97;5075403;28;20240;-88
2022/08/03 08:42:42;;;;;;;3.13;2.22;;;;;;;29.99;40.04;94795.81;5080370;28;20190;-89
2022/08/03 08:45:10;;;;;;;2.78;2.38;;;;;;;30.09;39.55;94794.28;5076629;28;20250;-90
2022/08/03 08:47:41;;;;;;;2.83;2.50;;;;;;;29.99;39.99;94787.13;5074525;28;20273;-88
2022/08/03 08:50:09;;;;;;;3.15;2.33;;;;;;;30.04;39.89;94788.97;5074955;28;20190;-90
2022/08/03 08:52:39;;;;;;;2.60;2.40;;;;;;;30.04;40.00;94781.84;5075180;28;20187;-88
2022/08/03 08:55:08;;;;;;;3.80;2.80;;;;;;;29.94;40.00;94772.06;5074881;28;20198;-88
2022/08/03 08:57:38;;;;;;;3.03;2.15;;;;;;;29.97;39.24;94752.31;5074564;28;20658;-89
2022/08/03 09:00:09;;;;;;;3.88;2.40;;;;;;;29.95;39.59;94754.38;5074226;28;20194;-88
2022/08/03 09:02:36;;;;;;;4.75;2.33;;;;;;;30.15;39.33;94780.88;5074974;28;20593;-87
2022/08/03 09:05:12;;;;;;;2.40;2.20;;;;;;;29.87;38.78;94741.69;5075285;28;20314;-88
2022/08/03 09:07:39;;;;;;;2.90;2.45;;;;;;;30.07;38.97;94776.06;5076100;28;20205;-88
2022/08/03 09:10:08;;;;;;;2.47;2.28;;;;;;;30.18;38.93;94777.75;5075612;28;20244;-88
2022/08/03 09:12:38;;;;;;;5.03;2.72;;;;;;;29.80;39.13;94715.56;5075305;28;20178;-89
2022/08/03 09:15:17;;;;;;;7.72;2.10;;;;;;;30.06;39.38;94776.34;5074399;28;20633;-89
2022/08/03 09:17:46;;;;;;;1.98;1.80;;;;;;;30.10;39.53;94753.69;5074627;28;20201;-90
2022/08/03 09:20:14;;;;;;;3.50;2.38;;;;;;;29.96;39.03;94714.56;5074839;28;20281;-92
2022/08/03 09:22:56;;;;;;;2.00;1.80;;;;;;;30.36;38.74;94781.75;5074900;28;20178;-89
2022/08/03 09:25:33;;;;;;;2.50;2.17;;;;;;;30.39;38.99;94778.59;5074553;28;20214;-90
2022/08/03 09:28:10;;;;;;;2.92;2.08;;;;;;;30.36;38.73;94767.78;5074740;28;20194;-90
2022/08/03 09:30:38;;;;;;;2.22;2.05;;;;;;;30.33;38.14;94739.25;5074298;28;20277;-90
2022/08/03 09:33:07;;;;;;;2.10;1.70;;;;;;;30.65;37.74;94760.16;5073829;28;20281;-92
2022/08/03 09:35:41;;;;;;;2.00;1.83;;;;;;;30.75;37.67;94764.72;5074652;28;20189;-89
2022/08/03 09:38:13;;;;;;;3.55;1.98;;;;;;;30.85;37.47;94762.88;5075940;28;20323;-90
2022/08/03 09:40:40;;;;;;;2.83;2.25;;;;;;;30.78;37.54;94756.25;5074465;28;20208;-90
2022/08/03 09:43:08;;;;;;;49.50;40.00;;;;;;;30.32;37.82;94682.25;5077930;28;20183;-88
2022/08/03 09:45:36;;;;;;;3.83;2.30;;;;;;;30.68;37.26;94749.88;5076488;28;20218;-88
2022/08/03 09:48:23;;;;;;;2.25;2.05;;;;;;;30.87;37.28;94765.22;5078935;28;20194;-88
2022/08/03 09:50:55;;;;;;;3.38;2.33;;;;;;;30.78;37.10;94757.03;5074649;28;20190;-90
2022/08/03 09:53:23;;;;;;;1.83;1.73;;;;;;;30.90;36.59;94756.78;5073801;28;20205;-90
2022/08/03 09:55:55;;;;;;;2.05;1.92;;;;;;;30.75;36.20;94747.03;5074572;28;20206;-91
2022/08/03 09:58:23;;;;;;;4.20;2.42;;;;;;;30.80;36.64;94756.78;5074721;28;20194;-90
2022/08/03 10:00:55;;;;;;;2.67;2.10;;;;;;;30.96;37.33;94761.03;5077002;28;20210;-91
2022/08/03 10:03:23;;;;;;;2.60;2.40;;;;;;;30.67;36.65;94716.63;5079017;28;20244;-91
2022/08/03 10:05:52;;;;;;;1.85;1.75;;;;;;;30.80;36.37;94736.47;5075218;28;20257;-91
2022/08/03 10:08:20;;;;;;;2.60;2.40;;;;;;;30.85;36.05;94762.06;5076269;28;20197;-90
2022/08/03 10:10:52;;;;;;;1.95;1.83;;;;;;;30.87;36.76;94752.03;5072741;28;20193;-88
2022/08/03 10:13:20;;;;;;;7.03;1.92;;;;;;;30.84;36.57;94756.00;5073838;28;20202;-88
2022/08/03 10:15:48;;;;;;;2.00;1.90;;;;;;;30.79;36.30;94755.22;5073349;28;20222;-91
2022/08/03 10:18:16;;;;;;;2.15;1.95;;;;;;;30.38;36.63;94683.84;5073404;28;20201;-88
2022/08/03 10:20:49;;;;;;;3.72;2.42;;;;;;;30.77;36.98;94744.91;5074595;28;20201;-88
2022/08/03 10:23:19;;;;;;;2.30;2.10;;;;;;;30.86;36.71;94748.59;5074753;28;20201;-91
2022/08/03 10:25:48;;;;;;;3.85;2.10;;;;;;;30.87;36.83;94746.75;5074944;28;20222;-91
2022/08/03 10:28:18;;;;;;;2.22;2.08;;;;;;;30.77;36.56;94725.63;5076393;28;20190;-88
2022/08/03 10:30:50;;;;;;;3.25;2.10;;;;;;;30.81;36.67;94722.19;5075815;28;20276;-89
2022/08/03 10:33:22;;;;;;;2.50;2.30;;;;;;;30.73;36.83;94715.59;5076258;28;20213;-88
2022/08/03 10:35:54;;;;;;;2.75;1.80;;;;;;;30.95;37.60;94735.66;5077066;28;20198;-91
2022/08/03 10:38:29;;;;;;;2.90;2.38;;;;;;;31.03;37.18;94739.63;5076083;28;20249;-89
2022/08/03 10:40:56;;;;;;;3.15;2.08;;;;;;;30.96;36.75;94732.78;5077227;28;20198;-92
2022/08/03 10:43:28;;;;;;;2.40;2.25;;;;;;;30.91;36.86;94735.38;5077979;28;20190;-90
2022/08/03 10:45:56;;;;;;;2.45;2.25;;;;;;;30.83;36.79;94740.41;5082478;28;20225;-90
2022/08/03 10:48:36;;;;;;;2.33;2.13;;;;;;;30.49;36.87;94688.09;5076745;28;20664;-89
2022/08/03 10:51:06;;;;;;;2.40;2.20;;;;;;;30.87;36.50;94729.09;5079246;28;20188;-87
2022/08/03 10:53:41;;;;;;;3.08;2.30;;;;;;;30.89;37.28;94742.81;5083381;28;20190;-88
2022/08/03 10:59:56;;;;;;;4.80;2.47;;;;;;;30.44;38.08;94694.16;5088666;28;20185;-91
2022/08/03 11:02:22;;;;;;;3.33;2.10;;;;;;;30.17;38.31;94686.44;5084440;28;20196;-88
2022/08/03 11:05:26;;;;;;;3.28;2.00;;;;;;;30.48;38.10;94732.19;5079489;28;20289;-90
2022/08/03 11:08:26;;;;;;;9.50;7.95;;;;;;;30.36;37.37;94720.28;5084461;28;20224;-89
2022/08/03 11:10:57;;;;;;;3.13;2.80;;;;;;;30.17;37.69;94680.38;5083491;28;20210;-88
2022/08/03 11:13:27;;;;;;;2.05;1.95;;;;;;;30.35;38.08;94730.00;5084151;28;20198;-89
2022/08/03 11:15:57;;;;;;;3.20;1.90;;;;;;;30.43;37.52;94721.59;5084859;28;20267;-87
2022/08/03 11:18:34;;;;;;;2.53;2.35;;;;;;;30.04;37.04;94652.63;5091929;28;20241;-90
2022/08/03 11:21:01;;;;;;;3.75;2.00;;;;;;;30.12;37.05;94665.28;5095857;28;20230;-90
2022/08/03 11:23:43;;;;;;;1.85;1.75;;;;;;;30.36;37.65;94721.06;5094513;28;20237;-89
2022/08/03 11:26:17;;;;;;;3.22;1.70;;;;;;;30.49;37.12;94707.38;5087102;28;20226;-88
2022/08/03 11:28:52;;;;;;;2.15;1.67;;;;;;;30.47;36.64;94698.09;5092588;28;20228;-93
2022/08/03 11:31:46;;;;;;;2.25;2.05;;;;;;;30.47;36.89;94706.03;5089599;28;20192;-90
2022/08/03 11:34:15;;;;;;;2.47;1.70;;;;;;;29.87;37.09;94652.03;5094632;28;20196;-88
2022/08/03 11:37:24;;;;;;;3.35;2.08;;;;;;;30.32;37.08;94703.38;5092087;28;20201;-88
2022/08/03 11:39:53;;;;;;;3.00;1.83;;;;;;;30.18;37.45;94676.66;5079258;28;20206;-88
2022/08/03 11:42:42;;;;;;;2.22;2.00;;;;;;;30.43;37.51;94695.19;5084019;28;20650;-90
2022/08/03 11:45:10;;;;;;;2.85;2.40;;;;;;;30.20;36.93;94670.09;5081413;28;20252;-87
2022/08/03 11:47:40;;;;;;;2.08;1.88;;;;;;;30.41;36.47;94693.88;5077347;28;20182;-89
2022/08/03 11:50:08;;;;;;;2.30;2.10;;;;;;;29.93;37.78;94637.84;5079591;28;20199;-88
2022/08/03 11:52:41;;;;;;;1.95;1.80;;;;;;;30.29;37.72;94680.13;5081436;28;20213;-88
2022/08/03 11:55:17;;;;;;;1.90;1.80;;;;;;;30.29;37.75;94685.41;5082842;28;20182;-89